sensor_id;sensor_type;location;lat;lon;timestamp;temperature;humidity
6486;DHT22;3276;48.490;9.222;2024-03-08T00:01:35;3.00;5.90
6486;DHT22;3276;48.490;9.222;2024-03-08T00:04:01;3.00;6.40
6486;DHT22;3276;48.490;9.222;2024-03-08T00:06:26;3.00;6.40
6486;DHT22;3276;48.490;9.222;2024-03-08T00:08:52;3.00;5.90
6486;DHT22;3276;48.490;9.222;2024-03-08T00:11:17;3.00;6.00
6486;DHT22;3276;48.490;9.222;2024-03-08T00:13:43;3.00;6.50
6486;DHT22;3276;48.490;9.222;2024-03-08T00:16:10;2.90;7.10
6486;DHT22;3276;48.490;9.222;2024-03-08T00:18:36;2.90;6.60
6486;DHT22;3276;48.490;9.222;2024-03-08T00:21:01;2.80;6.50
6486;DHT22;3276;48.490;9.222;2024-03-08T00:23:27;2.80;6.30
6486;DHT22;3276;48.490;9.222;2024-03-08T00:25:53;2.70;7.30
6486;DHT22;3276;48.490;9.222;2024-03-08T00:28:20;2.70;7.10
6486;DHT22;3276;48.490;9.222;2024-03-08T00:30:45;2.60;8.00
6486;DHT22;3276;48.490;9.222;2024-03-08T00:33:12;2.60;8.30
6486;DHT22;3276;48.490;9.222;2024-03-08T00:35:37;2.60;8.00
6486;DHT22;3276;48.490;9.222;2024-03-08T00:38:03;2.60;8.00
6486;DHT22;3276;48.490;9.222;2024-03-08T00:40:29;2.60;7.80
6486;DHT22;3276;48.490;9.222;2024-03-08T00:42:55;2.60;8.20
6486;DHT22;3276;48.490;9.222;2024-03-08T00:45:20;2.60;8.00
6486;DHT22;3276;48.490;9.222;2024-03-08T00:47:46;2.70;7.60
6486;DHT22;3276;48.490;9.222;2024-03-08T00:50:11;2.70;7.80
6486;DHT22;3276;48.490;9.222;2024-03-08T00:52:38;2.70;7.50
6486;DHT22;3276;48.490;9.222;2024-03-08T00:55:04;2.70;7.10
6486;DHT22;3276;48.490;9.222;2024-03-08T00:57:29;2.70;7.00
6486;DHT22;3276;48.490;9.222;2024-03-08T00:59:55;2.60;7.10
6486;DHT22;3276;48.490;9.222;2024-03-08T01:02:21;2.50;7.50
6486;DHT22;3276;48.490;9.222;2024-03-08T01:04:48;2.40;8.20
6486;DHT22;3276;48.490;9.222;2024-03-08T01:07:14;2.40;8.40
6486;DHT22;3276;48.490;9.222;2024-03-08T01:09:39;2.30;8.30
6486;DHT22;3276;48.490;9.222;2024-03-08T01:12:05;2.30;8.40
6486;DHT22;3276;48.490;9.222;2024-03-08T01:14:33;2.30;8.70
6486;DHT22;3276;48.490;9.222;2024-03-08T01:16:58;2.30;7.70
6486;DHT22;3276;48.490;9.222;2024-03-08T01:19:24;2.40;6.90
6486;DHT22;3276;48.490;9.222;2024-03-08T01:21:50;2.40;6.10
6486;DHT22;3276;48.490;9.222;2024-03-08T01:24:16;2.50;5.60
6486;DHT22;3276;48.490;9.222;2024-03-08T01:26:41;2.50;5.20
6486;DHT22;3276;48.490;9.222;2024-03-08T01:29:07;2.50;4.70
6486;DHT22;3276;48.490;9.222;2024-03-08T01:31:33;2.50;4.30
6486;DHT22;3276;48.490;9.222;2024-03-08T01:33:59;2.40;4.80
6486;DHT22;3276;48.490;9.222;2024-03-08T01:36:25;2.40;5.00
6486;DHT22;3276;48.490;9.222;2024-03-08T01:38:51;2.30;5.50
6486;DHT22;3276;48.490;9.222;2024-03-08T01:41:17;2.20;5.40
6486;DHT22;3276;48.490;9.222;2024-03-08T01:43:43;2.20;5.40
6486;DHT22;3276;48.490;9.222;2024-03-08T01:46:09;2.10;5.40
6486;DHT22;3276;48.490;9.222;2024-03-08T01:48:36;2.10;5.40
6486;DHT22;3276;48.490;9.222;2024-03-08T01:51:02;2.10;5.80
6486;DHT22;3276;48.490;9.222;2024-03-08T01:53:28;2.10;5.80
6486;DHT22;3276;48.490;9.222;2024-03-08T01:55:57;2.00;7.00
6486;DHT22;3276;48.490;9.222;2024-03-08T01:58:23;1.90;7.00
6486;DHT22;3276;48.490;9.222;2024-03-08T02:00:49;1.80;7.30
6486;DHT22;3276;48.490;9.222;2024-03-08T02:03:17;1.80;8.40
6486;DHT22;3276;48.490;9.222;2024-03-08T02:05:43;1.80;8.50
6486;DHT22;3276;48.490;9.222;2024-03-08T02:08:09;1.70;8.50
6486;DHT22;3276;48.490;9.222;2024-03-08T02:10:40;1.60;8.20
6486;DHT22;3276;48.490;9.222;2024-03-08T02:13:07;1.50;10.40
6486;DHT22;3276;48.490;9.222;2024-03-08T02:15:55;1.50;10.90
6486;DHT22;3276;48.490;9.222;2024-03-08T02:18:22;1.50;9.90
6486;DHT22;3276;48.490;9.222;2024-03-08T02:20:51;1.40;10.80
6486;DHT22;3276;48.490;9.222;2024-03-08T02:23:18;1.30;11.50
6486;DHT22;3276;48.490;9.222;2024-03-08T02:25:44;1.20;12.80
6486;DHT22;3276;48.490;9.222;2024-03-08T02:28:11;1.20;13.70
6486;DHT22;3276;48.490;9.222;2024-03-08T02:30:37;1.10;14.60
6486;DHT22;3276;48.490;9.222;2024-03-08T02:33:06;1.10;13.60
6486;DHT22;3276;48.490;9.222;2024-03-08T02:35:33;0.90;15.60
6486;DHT22;3276;48.490;9.222;2024-03-08T02:37:59;0.90;17.20
6486;DHT22;3276;48.490;9.222;2024-03-08T02:40:25;1.00;17.60
6486;DHT22;3276;48.490;9.222;2024-03-08T02:42:51;0.90;18.00
6486;DHT22;3276;48.490;9.222;2024-03-08T02:45:16;0.90;17.50
6486;DHT22;3276;48.490;9.222;2024-03-08T02:47:42;0.90;18.10
6486;DHT22;3276;48.490;9.222;2024-03-08T02:50:08;0.80;18.80
6486;DHT22;3276;48.490;9.222;2024-03-08T02:52:34;0.80;20.00
6486;DHT22;3276;48.490;9.222;2024-03-08T02:55:01;0.70;20.50
6486;DHT22;3276;48.490;9.222;2024-03-08T02:57:26;0.70;21.60
6486;DHT22;3276;48.490;9.222;2024-03-08T02:59:53;0.70;21.00
6486;DHT22;3276;48.490;9.222;2024-03-08T03:02:19;0.60;21.80
6486;DHT22;3276;48.490;9.222;2024-03-08T03:04:44;0.60;23.10
6486;DHT22;3276;48.490;9.222;2024-03-08T03:07:10;0.60;23.60
6486;DHT22;3276;48.490;9.222;2024-03-08T03:09:36;0.60;22.50
6486;DHT22;3276;48.490;9.222;2024-03-08T03:12:02;0.60;22.70
6486;DHT22;3276;48.490;9.222;2024-03-08T03:14:28;0.60;23.50
6486;DHT22;3276;48.490;9.222;2024-03-08T03:16:53;0.60;22.90
6486;DHT22;3276;48.490;9.222;2024-03-08T03:19:19;0.60;23.60
6486;DHT22;3276;48.490;9.222;2024-03-08T03:21:45;0.50;23.90
6486;DHT22;3276;48.490;9.222;2024-03-08T03:24:11;0.50;24.40
6486;DHT22;3276;48.490;9.222;2024-03-08T03:26:38;0.50;25.50
6486;DHT22;3276;48.490;9.222;2024-03-08T03:29:06;0.50;25.50
6486;DHT22;3276;48.490;9.222;2024-03-08T03:31:34;0.50;25.50
6486;DHT22;3276;48.490;9.222;2024-03-08T03:34:00;0.50;24.50
6486;DHT22;3276;48.490;9.222;2024-03-08T03:36:30;0.50;24.10
6486;DHT22;3276;48.490;9.222;2024-03-08T03:38:55;0.50;25.50
6486;DHT22;3276;48.490;9.222;2024-03-08T03:41:35;0.50;25.50
6486;DHT22;3276;48.490;9.222;2024-03-08T03:44:00;0.50;23.20
6486;DHT22;3276;48.490;9.222;2024-03-08T03:46:26;0.50;25.50
6486;DHT22;3276;48.490;9.222;2024-03-08T03:48:53;0.40;24.00
6486;DHT22;3276;48.490;9.222;2024-03-08T03:51:19;0.30;25.40
6486;DHT22;3276;48.490;9.222;2024-03-08T03:53:45;0.30;25.40
6486;DHT22;3276;48.490;9.222;2024-03-08T03:56:10;0.30;26.80
6486;DHT22;3276;48.490;9.222;2024-03-08T03:58:36;0.40;28.20
6486;DHT22;3276;48.490;9.222;2024-03-08T04:01:04;0.40;29.70
6486;DHT22;3276;48.490;9.222;2024-03-08T04:03:30;0.40;26.90
6486;DHT22;3276;48.490;9.222;2024-03-08T04:05:55;0.40;27.40
6486;DHT22;3276;48.490;9.222;2024-03-08T04:08:21;0.30;27.50
6486;DHT22;3276;48.490;9.222;2024-03-08T04:10:46;0.40;27.90
6486;DHT22;3276;48.490;9.222;2024-03-08T04:13:12;0.40;27.30
6486;DHT22;3276;48.490;9.222;2024-03-08T04:15:39;0.40;26.90
6486;DHT22;3276;48.490;9.222;2024-03-08T04:18:04;0.50;27.70
6486;DHT22;3276;48.490;9.222;2024-03-08T04:20:30;0.50;26.90
6486;DHT22;3276;48.490;9.222;2024-03-08T04:22:55;0.60;27.20
6486;DHT22;3276;48.490;9.222;2024-03-08T04:25:21;0.60;26.30
6486;DHT22;3276;48.490;9.222;2024-03-08T04:27:47;0.70;26.60
6486;DHT22;3276;48.490;9.222;2024-03-08T04:30:14;0.70;25.60
6486;DHT22;3276;48.490;9.222;2024-03-08T04:32:40;0.80;25.70
6486;DHT22;3276;48.490;9.222;2024-03-08T04:35:07;0.80;25.70
6486;DHT22;3276;48.490;9.222;2024-03-08T04:37:33;0.90;25.50
6486;DHT22;3276;48.490;9.222;2024-03-08T04:39:59;1.00;24.70
6486;DHT22;3276;48.490;9.222;2024-03-08T04:42:28;1.00;24.20
6486;DHT22;3276;48.490;9.222;2024-03-08T04:44:55;1.10;23.40
6486;DHT22;3276;48.490;9.222;2024-03-08T04:47:20;1.20;22.70
6486;DHT22;3276;48.490;9.222;2024-03-08T04:49:46;1.30;22.00
6486;DHT22;3276;48.490;9.222;2024-03-08T04:52:12;1.30;21.90
6486;DHT22;3276;48.490;9.222;2024-03-08T04:54:37;1.40;20.80
6486;DHT22;3276;48.490;9.222;2024-03-08T04:57:03;1.50;20.40
6486;DHT22;3276;48.490;9.222;2024-03-08T04:59:30;1.50;19.50
6486;DHT22;3276;48.490;9.222;2024-03-08T05:01:56;1.60;19.00
6486;DHT22;3276;48.490;9.222;2024-03-08T05:04:22;1.60;19.00
6486;DHT22;3276;48.490;9.222;2024-03-08T05:06:48;1.60;18.50
6486;DHT22;3276;48.490;9.222;2024-03-08T05:09:14;1.70;18.00
6486;DHT22;3276;48.490;9.222;2024-03-08T05:11:41;1.70;17.60
6486;DHT22;3276;48.490;9.222;2024-03-08T05:14:07;1.70;17.20
6486;DHT22;3276;48.490;9.222;2024-03-08T05:16:32;1.70;17.50
6486;DHT22;3276;48.490;9.222;2024-03-08T05:18:58;1.80;16.60
6486;DHT22;3276;48.490;9.222;2024-03-08T05:21:23;1.80;16.50
6486;DHT22;3276;48.490;9.222;2024-03-08T05:23:50;1.80;16.40
6486;DHT22;3276;48.490;9.222;2024-03-08T05:26:16;1.80;16.10
6486;DHT22;3276;48.490;9.222;2024-03-08T05:28:42;1.80;16.60
6486;DHT22;3276;48.490;9.222;2024-03-08T05:31:08;1.90;16.40
6486;DHT22;3276;48.490;9.222;2024-03-08T05:33:33;1.90;16.50
6486;DHT22;3276;48.490;9.222;2024-03-08T05:36:00;2.00;16.30
6486;DHT22;3276;48.490;9.222;2024-03-08T05:38:28;2.00;15.50
6486;DHT22;3276;48.490;9.222;2024-03-08T05:40:54;2.00;16.30
6486;DHT22;3276;48.490;9.222;2024-03-08T05:43:20;2.10;16.00
6486;DHT22;3276;48.490;9.222;2024-03-08T05:45:46;2.10;15.50
6486;DHT22;3276;48.490;9.222;2024-03-08T05:48:13;2.10;15.30
6486;DHT22;3276;48.490;9.222;2024-03-08T05:50:38;2.20;14.70
6486;DHT22;3276;48.490;9.222;2024-03-08T05:53:04;2.20;14.10
6486;DHT22;3276;48.490;9.222;2024-03-08T05:55:33;2.30;13.40
6486;DHT22;3276;48.490;9.222;2024-03-08T05:58:02;2.40;13.50
6486;DHT22;3276;48.490;9.222;2024-03-08T06:00:27;2.40;13.10
6486;DHT22;3276;48.490;9.222;2024-03-08T06:02:53;2.40;11.90
6486;DHT22;3276;48.490;9.222;2024-03-08T06:05:18;2.40;11.50
6486;DHT22;3276;48.490;9.222;2024-03-08T06:07:44;2.50;11.50
6486;DHT22;3276;48.490;9.222;2024-03-08T06:10:11;2.60;10.80
6486;DHT22;3276;48.490;9.222;2024-03-08T06:12:40;2.60;10.10
6486;DHT22;3276;48.490;9.222;2024-03-08T06:15:07;2.50;10.00
6486;DHT22;3276;48.490;9.222;2024-03-08T06:17:34;2.50;10.30
6486;DHT22;3276;48.490;9.222;2024-03-08T06:20:00;2.50;10.00
6486;DHT22;3276;48.490;9.222;2024-03-08T06:22:25;2.50;10.00
6486;DHT22;3276;48.490;9.222;2024-03-08T06:24:51;2.40;9.90
6486;DHT22;3276;48.490;9.222;2024-03-08T06:27:17;2.40;10.70
6486;DHT22;3276;48.490;9.222;2024-03-08T06:29:42;2.40;10.60
6486;DHT22;3276;48.490;9.222;2024-03-08T06:32:08;2.50;10.90
6486;DHT22;3276;48.490;9.222;2024-03-08T06:34:34;2.60;10.80
6486;DHT22;3276;48.490;9.222;2024-03-08T06:37:02;2.60;10.10
6486;DHT22;3276;48.490;9.222;2024-03-08T06:39:27;2.60;9.90
6486;DHT22;3276;48.490;9.222;2024-03-08T06:41:57;2.70;9.60
6486;DHT22;3276;48.490;9.222;2024-03-08T06:44:22;2.80;9.30
6486;DHT22;3276;48.490;9.222;2024-03-08T06:46:48;2.90;9.20
6486;DHT22;3276;48.490;9.222;2024-03-08T06:49:14;3.00;9.10
6486;DHT22;3276;48.490;9.222;2024-03-08T06:51:41;3.10;8.40
6486;DHT22;3276;48.490;9.222;2024-03-08T06:54:06;3.10;7.10
6486;DHT22;3276;48.490;9.222;2024-03-08T06:56:37;3.10;7.90
6486;DHT22;3276;48.490;9.222;2024-03-08T06:59:03;3.10;7.10
6486;DHT22;3276;48.490;9.222;2024-03-08T07:01:29;3.30;6.60
6486;DHT22;3276;48.490;9.222;2024-03-08T07:03:59;3.40;7.30
6486;DHT22;3276;48.490;9.222;2024-03-08T07:06:27;3.40;4.70
6486;DHT22;3276;48.490;9.222;2024-03-08T07:08:54;3.40;6.20
6486;DHT22;3276;48.490;9.222;2024-03-08T07:11:19;3.50;5.80
6486;DHT22;3276;48.490;9.222;2024-03-08T07:13:45;3.50;4.30
6486;DHT22;3276;48.490;9.222;2024-03-08T07:16:11;3.60;3.30
6486;DHT22;3276;48.490;9.222;2024-03-08T07:18:38;3.50;3.90
6486;DHT22;3276;48.490;9.222;2024-03-08T07:21:11;3.60;4.00
6486;DHT22;3276;48.490;9.222;2024-03-08T07:23:37;3.70;3.60
6486;DHT22;3276;48.490;9.222;2024-03-08T07:26:15;3.60;2.90
6486;DHT22;3276;48.490;9.222;2024-03-08T07:28:41;3.70;1.90
6486;DHT22;3276;48.490;9.222;2024-03-08T07:31:07;3.70;2.30
6486;DHT22;3276;48.490;9.222;2024-03-08T07:33:51;3.70;2.90
6486;DHT22;3276;48.490;9.222;2024-03-08T07:36:18;3.80;2.30
6486;DHT22;3276;48.490;9.222;2024-03-08T07:38:44;3.80;2.00
6486;DHT22;3276;48.490;9.222;2024-03-08T07:41:12;4.00;2.90
6486;DHT22;3276;48.490;9.222;2024-03-08T07:43:38;4.00;2.60
6486;DHT22;3276;48.490;9.222;2024-03-08T07:46:04;4.10;1.00
6486;DHT22;3276;48.490;9.222;2024-03-08T07:48:29;3.90;1.50
6486;DHT22;3276;48.490;9.222;2024-03-08T07:50:56;3.90;1.00
6486;DHT22;3276;48.490;9.222;2024-03-08T07:53:22;4.10;1.00
6486;DHT22;3276;48.490;9.222;2024-03-08T07:55:49;4.10;1.00
6486;DHT22;3276;48.490;9.222;2024-03-08T07:58:15;4.10;1.00
6486;DHT22;3276;48.490;9.222;2024-03-08T08:00:40;4.00;1.00
6486;DHT22;3276;48.490;9.222;2024-03-08T08:03:08;4.10;1.00
6486;DHT22;3276;48.490;9.222;2024-03-08T08:05:34;4.20;1.00
6486;DHT22;3276;48.490;9.222;2024-03-08T08:08:01;4.20;1.00
6486;DHT22;3276;48.490;9.222;2024-03-08T08:10:31;4.40;1.00
6486;DHT22;3276;48.490;9.222;2024-03-08T08:12:58;4.70;1.00
6486;DHT22;3276;48.490;9.222;2024-03-08T08:15:23;4.90;1.00
6486;DHT22;3276;48.490;9.222;2024-03-08T08:17:49;4.80;1.00
6486;DHT22;3276;48.490;9.222;2024-03-08T08:20:17;4.70;1.00
6486;DHT22;3276;48.490;9.222;2024-03-08T08:22:43;4.80;1.00
6486;DHT22;3276;48.490;9.222;2024-03-08T08:25:12;5.00;1.00
6486;DHT22;3276;48.490;9.222;2024-03-08T08:27:38;5.10;1.00
6486;DHT22;3276;48.490;9.222;2024-03-08T08:30:05;5.10;1.00
6486;DHT22;3276;48.490;9.222;2024-03-08T08:32:34;5.00;1.00
6486;DHT22;3276;48.490;9.222;2024-03-08T08:35:00;5.00;1.00
6486;DHT22;3276;48.490;9.222;2024-03-08T08:37:25;5.20;1.00
6486;DHT22;3276;48.490;9.222;2024-03-08T08:39:51;5.20;1.00
6486;DHT22;3276;48.490;9.222;2024-03-08T08:42:18;5.20;1.00
6486;DHT22;3276;48.490;9.222;2024-03-08T08:44:43;5.30;1.00
6486;DHT22;3276;48.490;9.222;2024-03-08T08:47:09;5.50;1.00
6486;DHT22;3276;48.490;9.222;2024-03-08T08:49:34;5.40;1.00
6486;DHT22;3276;48.490;9.222;2024-03-08T08:52:00;5.20;1.00
6486;DHT22;3276;48.490;9.222;2024-03-08T08:54:28;5.30;1.00
6486;DHT22;3276;48.490;9.222;2024-03-08T08:56:54;5.30;1.00
6486;DHT22;3276;48.490;9.222;2024-03-08T08:59:19;5.40;1.00
6486;DHT22;3276;48.490;9.222;2024-03-08T09:01:45;5.40;1.00
6486;DHT22;3276;48.490;9.222;2024-03-08T09:04:12;5.60;1.00
6486;DHT22;3276;48.490;9.222;2024-03-08T09:06:38;5.70;1.00
6486;DHT22;3276;48.490;9.222;2024-03-08T09:09:06;5.80;1.00
6486;DHT22;3276;48.490;9.222;2024-03-08T09:11:34;5.70;1.00
6486;DHT22;3276;48.490;9.222;2024-03-08T09:14:00;5.80;1.00
6486;DHT22;3276;48.490;9.222;2024-03-08T09:16:27;6.00;1.00
6486;DHT22;3276;48.490;9.222;2024-03-08T09:18:53;6.20;1.00
6486;DHT22;3276;48.490;9.222;2024-03-08T09:21:18;6.10;1.00
6486;DHT22;3276;48.490;9.222;2024-03-08T09:23:44;6.00;1.00
6486;DHT22;3276;48.490;9.222;2024-03-08T09:26:10;5.90;1.00
6486;DHT22;3276;48.490;9.222;2024-03-08T09:28:38;6.00;1.00
6486;DHT22;3276;48.490;9.222;2024-03-08T09:31:04;5.90;1.00
6486;DHT22;3276;48.490;9.222;2024-03-08T09:33:31;6.30;1.00
6486;DHT22;3276;48.490;9.222;2024-03-08T09:35:56;6.30;1.00
6486;DHT22;3276;48.490;9.222;2024-03-08T09:38:25;6.00;1.00
6486;DHT22;3276;48.490;9.222;2024-03-08T09:40:51;6.10;1.00
6486;DHT22;3276;48.490;9.222;2024-03-08T09:43:18;6.20;1.00
6486;DHT22;3276;48.490;9.222;2024-03-08T09:45:45;6.10;1.00
6486;DHT22;3276;48.490;9.222;2024-03-08T09:48:15;6.20;1.00
6486;DHT22;3276;48.490;9.222;2024-03-08T09:50:42;6.50;1.00
6486;DHT22;3276;48.490;9.222;2024-03-08T09:53:08;6.40;1.00
6486;DHT22;3276;48.490;9.222;2024-03-08T09:55:37;6.70;1.00
6486;DHT22;3276;48.490;9.222;2024-03-08T09:58:05;6.90;1.00
6486;DHT22;3276;48.490;9.222;2024-03-08T10:00:49;7.10;1.00
6486;DHT22;3276;48.490;9.222;2024-03-08T10:03:15;6.90;1.00
6486;DHT22;3276;48.490;9.222;2024-03-08T10:05:41;7.10;1.00
6486;DHT22;3276;48.490;9.222;2024-03-08T10:08:07;7.30;1.00
6486;DHT22;3276;48.490;9.222;2024-03-08T10:10:34;7.00;1.00
6486;DHT22;3276;48.490;9.222;2024-03-08T10:13:00;7.20;1.00
6486;DHT22;3276;48.490;9.222;2024-03-08T10:15:29;7.50;1.00
6486;DHT22;3276;48.490;9.222;2024-03-08T10:17:56;7.90;1.00
6486;DHT22;3276;48.490;9.222;2024-03-08T10:20:22;8.00;1.00
6486;DHT22;3276;48.490;9.222;2024-03-08T10:22:49;8.00;1.00
6486;DHT22;3276;48.490;9.222;2024-03-08T10:25:15;8.10;1.00
6486;DHT22;3276;48.490;9.222;2024-03-08T10:27:41;7.80;1.00
6486;DHT22;3276;48.490;9.222;2024-03-08T10:30:11;7.70;1.00
6486;DHT22;3276;48.490;9.222;2024-03-08T10:32:38;7.60;1.00
6486;DHT22;3276;48.490;9.222;2024-03-08T10:35:05;7.90;1.00
6486;DHT22;3276;48.490;9.222;2024-03-08T10:37:33;7.60;1.00
6486;DHT22;3276;48.490;9.222;2024-03-08T10:40:04;7.40;1.00
6486;DHT22;3276;48.490;9.222;2024-03-08T10:42:40;7.60;1.00
6486;DHT22;3276;48.490;9.222;2024-03-08T10:45:37;7.40;1.00
6486;DHT22;3276;48.490;9.222;2024-03-08T10:48:26;7.40;1.00
6486;DHT22;3276;48.490;9.222;2024-03-08T10:50:53;7.10;1.00
6486;DHT22;3276;48.490;9.222;2024-03-08T10:53:20;6.70;1.00
6486;DHT22;3276;48.490;9.222;2024-03-08T10:55:47;6.40;1.00
6486;DHT22;3276;48.490;9.222;2024-03-08T10:58:13;6.30;1.00
6486;DHT22;3276;48.490;9.222;2024-03-08T11:00:39;6.10;1.00
6486;DHT22;3276;48.490;9.222;2024-03-08T11:03:06;6.10;1.00
6486;DHT22;3276;48.490;9.222;2024-03-08T11:08:02;6.10;1.00
6486;DHT22;3276;48.490;9.222;2024-03-08T11:10:29;6.10;1.00
6486;DHT22;3276;48.490;9.222;2024-03-08T11:12:55;6.50;1.00
6486;DHT22;3276;48.490;9.222;2024-03-08T11:15:20;6.60;1.00
6486;DHT22;3276;48.490;9.222;2024-03-08T11:17:49;6.80;1.00
6486;DHT22;3276;48.490;9.222;2024-03-08T11:20:24;6.80;1.00
6486;DHT22;3276;48.490;9.222;2024-03-08T11:23:04;7.00;1.00
6486;DHT22;3276;48.490;9.222;2024-03-08T11:25:40;7.10;1.00
6486;DHT22;3276;48.490;9.222;2024-03-08T11:28:19;7.10;1.00
6486;DHT22;3276;48.490;9.222;2024-03-08T11:33:28;7.10;1.00
6486;DHT22;3276;48.490;9.222;2024-03-08T11:36:07;6.90;1.00
6486;DHT22;3276;48.490;9.222;2024-03-08T11:38:43;7.00;1.00
6486;DHT22;3276;48.490;9.222;2024-03-08T11:41:22;7.00;1.00
6486;DHT22;3276;48.490;9.222;2024-03-08T11:43:50;7.00;1.00
6486;DHT22;3276;48.490;9.222;2024-03-08T11:46:16;6.70;1.00
6486;DHT22;3276;48.490;9.222;2024-03-08T11:48:43;6.90;1.00
6486;DHT22;3276;48.490;9.222;2024-03-08T11:51:11;7.30;1.00
6486;DHT22;3276;48.490;9.222;2024-03-08T11:53:38;7.50;1.00
6486;DHT22;3276;48.490;9.222;2024-03-08T11:56:13;7.90;1.00
6486;DHT22;3276;48.490;9.222;2024-03-08T11:58:39;8.00;1.00
6486;DHT22;3276;48.490;9.222;2024-03-08T12:01:10;8.00;1.00
6486;DHT22;3276;48.490;9.222;2024-03-08T12:03:42;8.00;1.00
6486;DHT22;3276;48.490;9.222;2024-03-08T12:06:08;8.10;1.00
6486;DHT22;3276;48.490;9.222;2024-03-08T12:08:35;8.10;1.00
6486;DHT22;3276;48.490;9.222;2024-03-08T12:11:01;8.10;1.00
6486;DHT22;3276;48.490;9.222;2024-03-08T12:13:27;8.30;1.00
6486;DHT22;3276;48.490;9.222;2024-03-08T12:15:57;8.30;1.00
6486;DHT22;3276;48.490;9.222;2024-03-08T12:18:26;8.50;1.00
6486;DHT22;3276;48.490;9.222;2024-03-08T12:21:10;8.60;1.00
6486;DHT22;3276;48.490;9.222;2024-03-08T12:23:37;8.80;1.00
6486;DHT22;3276;48.490;9.222;2024-03-08T12:26:17;9.10;1.00
6486;DHT22;3276;48.490;9.222;2024-03-08T12:28:45;9.20;1.00
6486;DHT22;3276;48.490;9.222;2024-03-08T12:31:13;9.20;1.00
6486;DHT22;3276;48.490;9.222;2024-03-08T12:36:15;9.20;1.00
6486;DHT22;3276;48.490;9.222;2024-03-08T12:38:45;9.30;1.00
6486;DHT22;3276;48.490;9.222;2024-03-08T12:41:17;9.30;1.00
6486;DHT22;3276;48.490;9.222;2024-03-08T12:43:44;9.40;1.00
6486;DHT22;3276;48.490;9.222;2024-03-08T12:46:14;9.60;1.00
6486;DHT22;3276;48.490;9.222;2024-03-08T12:48:40;9.60;1.00
6486;DHT22;3276;48.490;9.222;2024-03-08T12:51:09;9.50;1.00
6486;DHT22;3276;48.490;9.222;2024-03-08T12:53:34;9.50;1.00
6486;DHT22;3276;48.490;9.222;2024-03-08T12:56:00;9.50;1.00
6486;DHT22;3276;48.490;9.222;2024-03-08T12:58:26;9.50;1.00
6486;DHT22;3276;48.490;9.222;2024-03-08T13:00:52;9.60;1.00
6486;DHT22;3276;48.490;9.222;2024-03-08T13:03:17;9.50;1.00
6486;DHT22;3276;48.490;9.222;2024-03-08T13:05:43;9.70;1.00
6486;DHT22;3276;48.490;9.222;2024-03-08T13:08:09;9.70;1.00
6486;DHT22;3276;48.490;9.222;2024-03-08T13:10:41;9.40;1.00
6486;DHT22;3276;48.490;9.222;2024-03-08T13:13:09;9.70;1.00
6486;DHT22;3276;48.490;9.222;2024-03-08T13:15:35;9.80;1.00
6486;DHT22;3276;48.490;9.222;2024-03-08T13:18:01;9.90;1.00
6486;DHT22;3276;48.490;9.222;2024-03-08T13:20:26;10.20;1.00
6486;DHT22;3276;48.490;9.222;2024-03-08T13:22:54;10.20;1.00
6486;DHT22;3276;48.490;9.222;2024-03-08T13:25:19;10.10;1.00
6486;DHT22;3276;48.490;9.222;2024-03-08T13:27:45;10.20;1.00
6486;DHT22;3276;48.490;9.222;2024-03-08T13:30:12;10.30;1.00
6486;DHT22;3276;48.490;9.222;2024-03-08T13:32:39;10.40;1.00
6486;DHT22;3276;48.490;9.222;2024-03-08T13:35:05;10.60;1.00
6486;DHT22;3276;48.490;9.222;2024-03-08T13:37:40;10.80;1.00
6486;DHT22;3276;48.490;9.222;2024-03-08T13:40:07;10.70;1.00
6486;DHT22;3276;48.490;9.222;2024-03-08T13:42:39;10.80;1.00
6486;DHT22;3276;48.490;9.222;2024-03-08T13:45:07;10.90;1.00
6486;DHT22;3276;48.490;9.222;2024-03-08T13:47:34;11.00;1.00
6486;DHT22;3276;48.490;9.222;2024-03-08T13:49:59;11.20;1.00
6486;DHT22;3276;48.490;9.222;2024-03-08T13:52:26;11.20;1.00
6486;DHT22;3276;48.490;9.222;2024-03-08T13:54:54;11.40;1.00
6486;DHT22;3276;48.490;9.222;2024-03-08T13:57:20;11.50;1.00
6486;DHT22;3276;48.490;9.222;2024-03-08T13:59:45;11.70;1.00
6486;DHT22;3276;48.490;9.222;2024-03-08T14:02:11;11.60;1.00
6486;DHT22;3276;48.490;9.222;2024-03-08T14:04:38;11.70;1.00
6486;DHT22;3276;48.490;9.222;2024-03-08T14:07:07;11.80;1.00
6486;DHT22;3276;48.490;9.222;2024-03-08T14:09:34;11.70;1.00
6486;DHT22;3276;48.490;9.222;2024-03-08T14:12:03;11.60;1.00
6486;DHT22;3276;48.490;9.222;2024-03-08T14:14:32;11.70;1.00
6486;DHT22;3276;48.490;9.222;2024-03-08T14:17:01;11.60;1.00
6486;DHT22;3276;48.490;9.222;2024-03-08T14:19:27;11.60;1.00
6486;DHT22;3276;48.490;9.222;2024-03-08T14:21:53;11.50;1.00
6486;DHT22;3276;48.490;9.222;2024-03-08T14:24:19;11.50;1.00
6486;DHT22;3276;48.490;9.222;2024-03-08T14:26:45;11.50;1.00
6486;DHT22;3276;48.490;9.222;2024-03-08T14:29:14;11.60;1.00
6486;DHT22;3276;48.490;9.222;2024-03-08T14:31:40;11.60;1.00
6486;DHT22;3276;48.490;9.222;2024-03-08T14:34:07;11.70;1.00
6486;DHT22;3276;48.490;9.222;2024-03-08T14:36:32;11.80;1.00
6486;DHT22;3276;48.490;9.222;2024-03-08T14:38:58;11.70;1.00
6486;DHT22;3276;48.490;9.222;2024-03-08T14:41:24;11.90;1.00
6486;DHT22;3276;48.490;9.222;2024-03-08T14:43:49;12.00;1.00
6486;DHT22;3276;48.490;9.222;2024-03-08T14:46:15;12.00;1.00
6486;DHT22;3276;48.490;9.222;2024-03-08T14:48:52;11.90;1.00
6486;DHT22;3276;48.490;9.222;2024-03-08T14:51:21;11.80;1.00
6486;DHT22;3276;48.490;9.222;2024-03-08T14:53:48;11.70;1.00
6486;DHT22;3276;48.490;9.222;2024-03-08T14:56:15;11.70;1.00
6486;DHT22;3276;48.490;9.222;2024-03-08T14:58:45;11.70;1.00
6486;DHT22;3276;48.490;9.222;2024-03-08T15:01:12;11.80;1.00
6486;DHT22;3276;48.490;9.222;2024-03-08T15:03:40;11.70;1.00
6486;DHT22;3276;48.490;9.222;2024-03-08T15:06:06;11.70;1.00
6486;DHT22;3276;48.490;9.222;2024-03-08T15:08:36;11.80;1.00
6486;DHT22;3276;48.490;9.222;2024-03-08T15:11:03;11.70;1.00
6486;DHT22;3276;48.490;9.222;2024-03-08T15:13:29;11.60;1.00
6486;DHT22;3276;48.490;9.222;2024-03-08T15:16:05;11.50;1.00
6486;DHT22;3276;48.490;9.222;2024-03-08T15:18:31;11.40;1.00
6486;DHT22;3276;48.490;9.222;2024-03-08T15:21:00;11.40;1.00
6486;DHT22;3276;48.490;9.222;2024-03-08T15:23:26;11.50;1.00
6486;DHT22;3276;48.490;9.222;2024-03-08T15:25:51;11.30;1.00
6486;DHT22;3276;48.490;9.222;2024-03-08T15:28:17;11.20;1.00
6486;DHT22;3276;48.490;9.222;2024-03-08T15:30:46;11.10;1.00
6486;DHT22;3276;48.490;9.222;2024-03-08T15:33:16;11.10;1.00
6486;DHT22;3276;48.490;9.222;2024-03-08T15:35:50;11.10;1.00
6486;DHT22;3276;48.490;9.222;2024-03-08T15:38:23;11.10;1.00
6486;DHT22;3276;48.490;9.222;2024-03-08T15:40:49;11.00;1.00
6486;DHT22;3276;48.490;9.222;2024-03-08T15:43:16;11.00;1.00
6486;DHT22;3276;48.490;9.222;2024-03-08T15:45:44;10.90;1.00
6486;DHT22;3276;48.490;9.222;2024-03-08T15:48:09;10.80;1.00
6486;DHT22;3276;48.490;9.222;2024-03-08T15:50:35;10.80;1.00
6486;DHT22;3276;48.490;9.222;2024-03-08T15:53:01;10.70;1.00
6486;DHT22;3276;48.490;9.222;2024-03-08T15:55:26;10.60;1.00
6486;DHT22;3276;48.490;9.222;2024-03-08T15:57:53;10.50;1.00
6486;DHT22;3276;48.490;9.222;2024-03-08T16:00:22;10.50;1.00
6486;DHT22;3276;48.490;9.222;2024-03-08T16:03:11;10.40;1.00
6486;DHT22;3276;48.490;9.222;2024-03-08T16:05:44;10.40;1.00
6486;DHT22;3276;48.490;9.222;2024-03-08T16:08:17;10.30;1.00
6486;DHT22;3276;48.490;9.222;2024-03-08T16:10:47;10.20;1.00
6486;DHT22;3276;48.490;9.222;2024-03-08T16:13:16;10.10;1.00
6486;DHT22;3276;48.490;9.222;2024-03-08T16:15:45;10.10;1.00
6486;DHT22;3276;48.490;9.222;2024-03-08T16:18:12;9.90;1.00
6486;DHT22;3276;48.490;9.222;2024-03-08T16:20:38;9.90;1.00
6486;DHT22;3276;48.490;9.222;2024-03-08T16:23:04;9.80;1.00
6486;DHT22;3276;48.490;9.222;2024-03-08T16:25:30;9.80;1.00
6486;DHT22;3276;48.490;9.222;2024-03-08T16:27:56;9.70;1.00
6486;DHT22;3276;48.490;9.222;2024-03-08T16:30:21;9.70;1.00
6486;DHT22;3276;48.490;9.222;2024-03-08T16:32:49;9.50;1.00
6486;DHT22;3276;48.490;9.222;2024-03-08T16:35:18;9.40;1.00